Terminal Aerodrome Forecast
Issued by NWS

Home | Current Version | Previous Version | Text Only | Print | Product List | Glossary On
Versions: 1 2 3 4 5 6 7 8 9 10 11 12 13 14 15 16 17 18 19
763
FTUS43 KBIS 121739
TAFJMS
TAF
KJMS 121739Z 1218/1318 35010KT P6SM FEW010 SCT140
      TEMPO 1218/1219 BKN015
     FM122300 06005KT P6SM SCT200
     FM131000 16004KT P6SM BKN120
     FM131500 15012KT P6SM SCT020 BKN030=

USA.gov is the U.S. government's official web portal to all federal, state and local government web resources and services.